Time;durP1;ratioP1;P1;durP2;ratioP2;P2;SDS_P1;SDS_P2;PMS_P1;PMS_P2;Temp;Humidity;BMP_temperature;BMP_pressure;BME280_temperature;BME280_humidity;BME280_pressure;Samples;Min_cycle;Max_cycle;Signal;HPM_P1;HPM_P2
2024/01/13 00:01:46;;;;;;;17.65;4.05;;;;;;;;;;5064577;28;20036;-50
2024/01/13 00:04:12;;;;;;;10.82;4.50;;;;;;;;;;5062598;28;20044;-52
2024/01/13 00:06:38;;;;;;;16.20;4.57;;;4.40;99.90;;;;;;5071549;28;20154;-51
2024/01/13 00:09:04;;;;;;;14.77;4.28;;;;;;;;;;5046111;28;20119;-51
2024/01/13 00:11:30;;;;;;;12.55;3.88;;;;;;;;;;5069691;28;20047;-50
2024/01/13 00:13:56;;;;;;;16.25;4.15;;;;;;;;;;5065887;28;20048;-51
2024/01/13 00:16:21;;;;;;;14.70;4.88;;;;;;;;;;5065478;28;20048;-52
2024/01/13 00:18:47;;;;;;;10.75;3.83;;;4.40;99.90;;;;;;5049012;28;20072;-51
2024/01/13 00:21:13;;;;;;;11.65;3.72;;;;;;;;;;5065534;28;20068;-53
2024/01/13 00:23:39;;;;;;;10.27;3.55;;;;;;;;;;5065251;28;20090;-55
2024/01/13 00:26:05;;;;;;;10.23;3.58;;;;;;;;;;5063126;28;20665;-52
2024/01/13 00:28:31;;;;;;;9.63;3.28;;;;;;;;;;5064819;28;20033;-54
2024/01/13 00:30:57;;;;;;;12.90;3.22;;;;;;;;;;5061816;28;20507;-53
2024/01/13 00:33:23;;;;;;;10.57;3.10;;;4.40;99.90;;;;;;5062850;28;20049;-52
2024/01/13 00:35:49;;;;;;;11.48;3.08;;;;;;;;;;5067305;28;20029;-51
2024/01/13 00:38:15;;;;;;;9.77;2.60;;;;;;;;;;5067224;28;20052;-51
2024/01/13 00:40:41;;;;;;;10.85;3.03;;;;;;;;;;5070016;28;20082;-51
2024/01/13 00:43:07;;;;;;;9.10;2.33;;;;;;;;;;5063837;28;20040;-49
2024/01/13 00:45:34;;;;;;;11.57;2.40;;;;;;;;;;5066786;28;20119;-53
2024/01/13 00:48:00;;;;;;;10.80;2.22;;;;;;;;;;5064516;28;20056;-50
2024/01/13 00:50:26;;;;;;;9.27;2.22;;;;;;;;;;5058137;28;20025;-51
2024/01/13 00:52:52;;;;;;;6.57;1.70;;;4.40;99.90;;;;;;5067053;28;20450;-50
2024/01/13 00:55:17;;;;;;;11.93;2.20;;;4.40;99.90;;;;;;5064682;28;20037;-51
2024/01/13 00:57:43;;;;;;;7.80;2.22;;;;;;;;;;5064241;28;20484;-53
2024/01/13 01:00:10;;;;;;;7.50;1.83;;;;;;;;;;5062319;28;20573;-54
2024/01/13 01:02:36;;;;;;;10.02;2.10;;;4.50;99.90;;;;;;5066746;28;20439;-52
2024/01/13 01:05:02;;;;;;;9.52;2.13;;;;;;;;;;5062189;28;20110;-50
2024/01/13 01:07:28;;;;;;;6.45;1.98;;;;;;;;;;5068422;28;20037;-52
2024/01/13 01:09:54;;;;;;;8.07;2.60;;;;;;;;;;5067441;28;20526;-51
2024/01/13 01:12:20;;;;;;;8.65;2.40;;;;;;;;;;5069663;28;20136;-50
2024/01/13 01:14:46;;;;;;;10.15;2.75;;;;;;;;;;5064952;28;20076;-51
2024/01/13 01:17:13;;;;;;;6.22;2.40;;;;;;;;;;5043975;28;20467;-55
2024/01/13 01:19:39;;;;;;;10.32;2.15;;;;;;;;;;5059505;28;20526;-55
2024/01/13 01:22:05;;;;;;;6.75;2.03;;;;;;;;;;5067472;28;20040;-55
2024/01/13 01:24:31;;;;;;;6.97;2.17;;;;;;;;;;5064306;28;20736;-53
2024/01/13 01:26:57;;;;;;;8.77;2.13;;;;;;;;;;5061463;28;20040;-52
2024/01/13 01:29:23;;;;;;;9.60;2.90;;;4.10;99.90;;;;;;5059889;28;20045;-52
2024/01/13 01:31:49;;;;;;;6.78;2.25;;;;;;;;;;5070307;28;20123;-53
2024/01/13 01:34:15;;;;;;;7.75;2.60;;;;;;;;;;5070479;28;20052;-53
2024/01/13 01:36:41;;;;;;;6.55;2.30;;;;;;;;;;5066087;28;20032;-53
2024/01/13 01:39:09;;;;;;;5.47;1.88;;;;;;;;;;5070232;28;20108;-54
2024/01/13 01:41:35;;;;;;;11.48;2.33;;;;;;;;;;5067298;28;20044;-52
2024/01/13 01:44:01;;;;;;;5.88;2.03;;;;;;;;;;5066147;28;20044;-54
2024/01/13 01:46:30;;;;;;;4.63;1.60;;;;;;;;;;5067199;28;20043;-50
2024/01/13 01:48:58;;;;;;;9.35;1.85;;;3.70;99.90;;;;;;5066732;28;20024;-51
2024/01/13 01:51:26;;;;;;;6.80;1.75;;;;;;;;;;5067350;28;20036;-54
2024/01/13 01:53:52;;;;;;;7.78;3.00;;;;;;;;;;5066210;28;20047;-53
2024/01/13 01:56:19;;;;;;;8.23;1.90;;;;;;;;;;5066612;28;20048;-53
2024/01/13 01:58:47;;;;;;;6.97;1.70;;;3.70;99.90;;;;;;5067738;28;20710;-52
2024/01/13 02:01:13;;;;;;;4.65;1.50;;;;;;;;;;5065085;28;20044;-50
2024/01/13 02:03:39;;;;;;;5.35;1.70;;;;;;;;;;5069432;28;20040;-52
2024/01/13 02:06:06;;;;;;;5.93;1.75;;;;;;;;;;5069927;28;20036;-50
2024/01/13 02:08:32;;;;;;;6.25;1.60;;;;;;;;;;5066703;28;20047;-52
2024/01/13 02:10:58;;;;;;;6.18;1.40;;;4.10;99.90;;;;;;5068772;28;20032;-50
2024/01/13 02:13:24;;;;;;;8.43;1.40;;;4.00;99.90;;;;;;5067035;28;20045;-53
2024/01/13 02:15:49;;;;;;;5.28;1.33;;;4.10;99.90;;;;;;5067837;28;20028;-51
2024/01/13 02:18:15;;;;;;;8.75;1.88;;;;;;;;;;5069119;28;20419;-51
2024/01/13 02:20:41;;;;;;;7.35;1.48;;;;;;;;;;5067874;28;20342;-50
2024/01/13 02:23:07;;;;;;;5.10;1.05;;;;;;;;;;5069313;28;20503;-50
2024/01/13 02:25:33;;;;;;;4.13;1.30;;;;;;;;;;5068331;28;20075;-51
2024/01/13 02:27:59;;;;;;;7.20;1.45;;;;;;;;;;5066596;28;20086;-55
2024/01/13 02:30:25;;;;;;;4.63;1.50;;;;;;;;;;5068674;28;20082;-54
2024/01/13 02:32:51;;;;;;;5.32;1.55;;;;;;;;;;5068377;28;20123;-52
2024/01/13 02:35:17;;;;;;;6.43;1.80;;;4.10;99.90;;;;;;5069375;28;20119;-54
2024/01/13 02:37:43;;;;;;;7.80;2.00;;;;;;;;;;5064857;28;20419;-50
2024/01/13 02:40:09;;;;;;;8.10;2.22;;;;;;;;;;5064672;28;20492;-51
2024/01/13 02:42:36;;;;;;;6.97;1.90;;;;;;;;;;5066426;28;20040;-50
2024/01/13 02:45:01;;;;;;;4.68;1.67;;;4.10;99.90;;;;;;5064658;28;20378;-50
2024/01/13 02:47:43;;;;;;;4.75;1.63;;;;;;;;;;5068779;28;20046;-53
2024/01/13 02:50:09;;;;;;;7.50;1.70;;;;;;;;;;5064380;28;20060;-51
2024/01/13 02:52:35;;;;;;;7.13;2.22;;;;;;;;;;5067039;28;20044;-51
2024/01/13 02:55:01;;;;;;;8.73;1.88;;;;;;;;;;5068853;28;20055;-50
2024/01/13 02:57:26;;;;;;;9.13;2.00;;;4.20;99.90;;;;;;5068614;28;20037;-51
2024/01/13 02:59:52;;;;;;;5.50;1.80;;;;;;;;;;5067949;28;20086;-51
2024/01/13 03:02:18;;;;;;;7.22;1.98;;;;;;;;;;5066417;28;20499;-50
2024/01/13 03:04:44;;;;;;;7.63;2.00;;;;;;;;;;5062642;28;20051;-50
2024/01/13 03:07:10;;;;;;;10.13;2.50;;;4.20;99.90;;;;;;5062028;28;20068;-49
2024/01/13 03:09:36;;;;;;;9.70;2.40;;;;;;;;;;5060520;28;20040;-49
2024/01/13 03:12:02;;;;;;;8.68;2.58;;;;;;;;;;5062377;28;20053;-49
2024/01/13 03:14:29;;;;;;;7.50;1.95;;;;;;;;;;5065235;28;20068;-51
2024/01/13 03:16:55;;;;;;;5.65;2.03;;;;;;;;;;5061992;28;20041;-51
2024/01/13 03:19:21;;;;;;;8.32;2.58;;;;;;;;;;5057818;28;20352;-51
2024/01/13 03:21:47;;;;;;;10.73;2.40;;;;;;;;;;5062025;28;20043;-50
2024/01/13 03:24:13;;;;;;;10.00;2.97;;;4.10;99.90;;;;;;5066699;28;20119;-50
2024/01/13 03:26:39;;;;;;;10.85;3.33;;;;;;;;;;5063330;28;20040;-53
2024/01/13 03:29:05;;;;;;;7.53;2.50;;;;;;;;;;5065377;28;20519;-50
2024/01/13 03:31:31;;;;;;;6.40;2.60;;;;;;;;;;5048587;28;20075;-49
2024/01/13 03:33:57;;;;;;;7.30;2.60;;;;;;;;;;5068540;28;20086;-51
2024/01/13 03:36:22;;;;;;;10.45;2.58;;;4.30;99.90;;;;;;5064716;28;20534;-49
2024/01/13 03:38:48;;;;;;;9.00;2.50;;;;;;;;;;5069034;28;20059;-51
2024/01/13 03:41:16;;;;;;;10.27;2.30;;;;;;;;;;5068006;28;20041;-49
2024/01/13 03:43:42;;;;;;;6.97;2.90;;;;;;;;;;5068842;28;20048;-51
2024/01/13 03:46:08;;;;;;;9.25;2.38;;;;;;;;;;5069113;28;20045;-55
2024/01/13 03:48:34;;;;;;;9.18;2.20;;;;;;;;;;5071185;28;20040;-55
2024/01/13 03:51:00;;;;;;;10.65;2.17;;;;;;;;;;5067601;28;20029;-54
2024/01/13 03:53:28;;;;;;;6.57;2.30;;;;;;;;;;5070456;28;20219;-54
2024/01/13 03:55:54;;;;;;;7.53;2.10;;;4.20;99.90;;;;;;5069243;28;20112;-53
2024/01/13 03:58:19;;;;;;;9.05;2.22;;;4.30;99.90;;;;;;5069759;28;20163;-55
2024/01/13 04:00:46;;;;;;;8.30;2.83;;;4.40;99.90;;;;;;5068280;28;20040;-53
2024/01/13 04:03:12;;;;;;;9.10;2.55;;;;;;;;;;5066445;28;20438;-53
2024/01/13 04:05:38;;;;;;;5.50;1.80;;;4.20;99.90;;;;;;5070760;28;20050;-55
2024/01/13 04:08:04;;;;;;;6.85;2.30;;;4.30;99.90;;;;;;5071309;28;20036;-50
2024/01/13 04:10:30;;;;;;;6.07;2.10;;;;;;;;;;5070593;28;20377;-51
2024/01/13 04:12:56;;;;;;;6.40;2.08;;;;;;;;;;5066920;28;20044;-54
2024/01/13 04:15:22;;;;;;;8.93;2.05;;;;;;;;;;5069865;28;20090;-54
2024/01/13 04:17:48;;;;;;;6.38;1.80;;;;;;;;;;5068154;28;20037;-52
2024/01/13 04:20:14;;;;;;;4.65;1.55;;;;;;;;;;5067906;28;20527;-52
2024/01/13 04:22:40;;;;;;;7.00;1.80;;;;;;;;;;5067319;28;20494;-52
2024/01/13 04:25:07;;;;;;;9.13;1.80;;;;;;;;;;5070068;28;20045;-51
2024/01/13 04:27:33;;;;;;;8.88;1.75;;;;;;;;;;5068029;28;20515;-52
2024/01/13 04:29:59;;;;;;;5.57;1.92;;;;;;;;;;5070629;28;20101;-50
2024/01/13 04:32:25;;;;;;;5.95;1.80;;;;;;;;;;5065824;28;20503;-51
2024/01/13 04:34:51;;;;;;;7.75;1.95;;;;;;;;;;5070261;28;20047;-53
2024/01/13 04:37:16;;;;;;;7.85;2.28;;;4.00;99.90;;;;;;5066125;28;20521;-51
2024/01/13 04:39:42;;;;;;;7.18;1.80;;;;;;;;;;5068235;28;20032;-50
2024/01/13 04:42:08;;;;;;;7.25;2.05;;;;;;;;;;5071000;28;20539;-51
2024/01/13 04:44:34;;;;;;;8.88;1.70;;;;;;;;;;5071185;28;20040;-52
2024/01/13 04:47:00;;;;;;;8.18;2.08;;;;;;;;;;5069481;28;20412;-51
2024/01/13 04:49:27;;;;;;;8.57;2.08;;;;;;;;;;5069536;28;20046;-50
2024/01/13 04:51:53;;;;;;;6.00;1.90;;;;;;;;;;5069693;28;20348;-51
2024/01/13 04:54:19;;;;;;;6.93;1.65;;;;;;;;;;5071309;28;20082;-53
2024/01/13 04:56:45;;;;;;;7.40;1.60;;;;;;;;;;5069386;28;20036;-50
2024/01/13 04:59:11;;;;;;;5.18;1.40;;;;;;;;;;5067304;28;20284;-51
2024/01/13 05:01:37;;;;;;;3.90;1.35;;;;;;;;;;5070699;28;20032;-51
2024/01/13 05:04:03;;;;;;;5.45;1.70;;;;;;;;;;5069300;28;20421;-53
2024/01/13 05:06:29;;;;;;;7.22;1.55;;;;;;;;;;5069231;28;20036;-51
2024/01/13 05:08:55;;;;;;;8.70;2.13;;;;;;;;;;5067207;28;20333;-51
2024/01/13 05:11:21;;;;;;;7.30;1.90;;;4.10;99.90;;;;;;5067124;28;20043;-53
2024/01/13 05:13:47;;;;;;;5.18;1.73;;;;;;;;;;5068960;28;20140;-53
2024/01/13 05:16:13;;;;;;;6.85;1.80;;;;;;;;;;5069622;28;20090;-52
2024/01/13 05:18:39;;;;;;;6.05;1.75;;;;;;;;;;5069504;28;20446;-53
2024/01/13 05:21:05;;;;;;;7.30;1.77;;;;;;;;;;5068745;28;20045;-51
2024/01/13 05:23:30;;;;;;;5.38;1.60;;;4.20;99.90;;;;;;5066110;28;20090;-50
2024/01/13 05:25:56;;;;;;;6.35;1.80;;;4.20;99.90;;;;;;5065189;28;20404;-51
2024/01/13 05:28:22;;;;;;;5.43;1.73;;;;;;;;;;5063146;28;20036;-51
2024/01/13 05:30:48;;;;;;;5.90;1.98;;;;;;;;;;5064213;28;20051;-51
2024/01/13 05:33:14;;;;;;;7.43;2.17;;;;;;;;;;5067990;28;20040;-51
2024/01/13 05:35:40;;;;;;;6.05;2.50;;;;;;;;;;5060150;28;20121;-52
2024/01/13 05:38:06;;;;;;;6.80;2.70;;;;;;;;;;5038962;28;20072;-53
2024/01/13 05:40:32;;;;;;;5.75;2.30;;;;;;;;;;5061951;28;20029;-50
2024/01/13 05:42:58;;;;;;;5.50;2.08;;;;;;;;;;5047891;28;20041;-51
2024/01/13 05:45:24;;;;;;;9.00;2.65;;;;;;;;;;5062478;28;20511;-51
2024/01/13 05:47:51;;;;;;;6.88;2.67;;;4.10;99.90;;;;;;5068062;28;20484;-50
2024/01/13 05:50:16;;;;;;;5.28;2.15;;;4.10;99.90;;;;;;5066411;28;20037;-52
2024/01/13 05:52:42;;;;;;;7.18;1.83;;;4.30;99.90;;;;;;5066987;28;20518;-52
2024/01/13 05:55:08;;;;;;;4.32;1.70;;;4.20;99.90;;;;;;5061813;28;20396;-50
2024/01/13 05:57:34;;;;;;;6.05;1.73;;;;;;;;;;5063833;28;20505;-53
2024/01/13 06:00:00;;;;;;;4.78;1.65;;;;;;;;;;5064400;28;20256;-52
2024/01/13 06:02:26;;;;;;;4.55;1.55;;;;;;;;;;5061431;28;20426;-51
2024/01/13 06:04:52;;;;;;;7.72;1.85;;;;;;;;;;5060708;28;20037;-55
2024/01/13 06:07:17;;;;;;;5.15;1.60;;;4.20;99.90;;;;;;5068397;28;20492;-51
2024/01/13 06:09:43;;;;;;;6.88;2.92;;;4.20;99.90;;;;;;5045221;28;20084;-51
2024/01/13 06:12:09;;;;;;;6.68;1.92;;;;;;;;;;5068291;28;20040;-55
2024/01/13 06:14:35;;;;;;;5.53;1.90;;;;;;;;;;5066422;28;20514;-55
2024/01/13 06:17:01;;;;;;;5.43;2.00;;;;;;;;;;5065102;28;20045;-54
2024/01/13 06:19:27;;;;;;;10.27;2.25;;;;;;;;;;5066934;28;20032;-53
2024/01/13 06:21:53;;;;;;;5.05;1.92;;;;;;;;;;5068238;28;20559;-54
2024/01/13 06:24:19;;;;;;;4.85;1.73;;;;;;;;;;5066148;28;20040;-50
2024/01/13 06:26:46;;;;;;;5.47;1.70;;;;;;;;;;5065532;28;20052;-51
2024/01/13 06:29:12;;;;;;;6.00;1.73;;;;;;;;;;5068203;28;20047;-51
2024/01/13 06:31:38;;;;;;;7.22;1.70;;;;;;;;;;5055186;28;20094;-53
2024/01/13 06:34:04;;;;;;;5.82;1.80;;;;;;;;;;5061449;28;20048;-51
2024/01/13 06:36:30;;;;;;;7.05;2.10;;;4.10;99.90;;;;;;5058348;28;20032;-53
2024/01/13 06:38:56;;;;;;;9.90;3.17;;;;;;;;;;5065723;28;20032;-51
2024/01/13 06:41:22;;;;;;;6.72;2.00;;;;;;;;;;5062273;28;20033;-55
2024/01/13 06:43:48;;;;;;;9.02;2.92;;;;;;;;;;5062605;28;20040;-53
2024/01/13 06:46:14;;;;;;;11.35;5.03;;;;;;;;;;5055939;28;20083;-55
2024/01/13 06:48:40;;;;;;;14.50;8.27;;;;;;;;;;5057661;28;20075;-52
2024/01/13 06:51:06;;;;;;;17.70;9.70;;;;;;;;;;5063719;28;20043;-53
2024/01/13 06:53:32;;;;;;;25.05;12.57;;;;;;;;;;5062238;28;20037;-53
2024/01/13 06:55:58;;;;;;;27.15;13.77;;;;;;;;;;5065099;28;20043;-50
2024/01/13 06:58:24;;;;;;;29.05;16.88;;;4.20;99.90;;;;;;5062501;28;20037;-54
2024/01/13 07:00:49;;;;;;;32.25;17.83;;;;;;;;;;5041937;28;20047;-50
2024/01/13 07:03:17;;;;;;;27.85;15.70;;;;;;;;;;5062775;28;20480;-51
2024/01/13 07:05:43;;;;;;;25.08;13.77;;;;;;;;;;5066278;28;20044;-51
2024/01/13 07:08:08;;;;;;;28.00;15.20;;;4.40;99.90;;;;;;5063378;28;20089;-50
2024/01/13 07:10:34;;;;;;;33.15;17.88;;;;;;;;;;5059931;28;20040;-51
2024/01/13 07:13:00;;;;;;;38.25;17.20;;;;;;;;;;5048769;28;20334;-52
2024/01/13 07:15:27;;;;;;;30.27;16.92;;;;;;;;;;5038543;28;20047;-52
2024/01/13 07:17:53;;;;;;;33.28;18.95;;;;;;;;;;5042857;28;20099;-52
2024/01/13 07:20:19;;;;;;;39.00;19.73;;;;;;;;;;5060212;28;20050;-50
2024/01/13 07:22:45;;;;;;;36.60;19.00;;;;;;;;;;5061184;28;20036;-52
2024/01/13 07:25:11;;;;;;;39.85;20.00;;;;;;;;;;5062274;28;20037;-52
2024/01/13 07:27:37;;;;;;;38.22;21.30;;;;;;;;;;5059708;28;20120;-53
2024/01/13 07:30:04;;;;;;;42.88;22.42;;;;;;;;;;5061180;28;20353;-55
2024/01/13 07:32:30;;;;;;;37.97;20.92;;;;;;;;;;5065170;28;20380;-55
2024/01/13 07:34:56;;;;;;;40.03;20.85;;;4.30;99.90;;;;;;5055849;28;20032;-55
2024/01/13 07:37:22;;;;;;;39.55;21.38;;;;;;;;;;5059159;28;20496;-53
2024/01/13 07:39:47;;;;;;;42.75;22.27;;;;;;;;;;5058017;28;20048;-52
2024/01/13 07:42:14;;;;;;;49.35;22.85;;;;;;;;;;5063423;28;20041;-52
2024/01/13 07:44:42;;;;;;;34.67;21.15;;;;;;;;;;5059464;28;20064;-51
2024/01/13 07:47:08;;;;;;;39.00;20.02;;;;;;;;;;5062649;28;20051;-51
2024/01/13 07:49:34;;;;;;;40.25;21.70;;;;;;;;;;5059065;28;20040;-53
2024/01/13 07:52:00;;;;;;;40.60;21.23;;;;;;;;;;5062920;28;20044;-53
2024/01/13 07:54:26;;;;;;;40.72;23.35;;;4.50;99.90;;;;;;5063962;28;20086;-53
2024/01/13 07:56:53;;;;;;;42.33;24.58;;;;;;;;;;5057077;28;20439;-51
2024/01/13 07:59:19;;;;;;;49.22;25.08;;;;;;;;;;5058086;28;20040;-54
2024/01/13 08:01:45;;;;;;;42.90;24.77;;;;;;;;;;5061565;28;20048;-51
2024/01/13 08:04:12;;;;;;;45.00;23.80;;;4.40;99.90;;;;;;5064182;28;20036;-52
2024/01/13 08:06:38;;;;;;;45.17;23.55;;;;;;;;;;5065906;28;20044;-50
2024/01/13 08:09:04;;;;;;;46.70;22.65;;;;;;;;;;5058636;28;20076;-53
2024/01/13 08:11:30;;;;;;;45.78;24.88;;;;;;;;;;5063637;28;20072;-53
2024/01/13 08:13:56;;;;;;;49.60;24.67;;;4.40;99.90;;;;;;5064975;28;20128;-52
2024/01/13 08:16:22;;;;;;;46.50;26.27;;;;;;;;;;5065499;28;20599;-51
2024/01/13 08:18:48;;;;;;;48.53;26.73;;;;;;;;;;5068145;28;20039;-51
2024/01/13 08:21:14;;;;;;;45.88;26.67;;;4.40;99.90;;;;;;5070153;28;20045;-52
2024/01/13 08:23:40;;;;;;;48.00;28.63;;;;;;;;;;5067174;28;20137;-53
2024/01/13 08:26:06;;;;;;;48.22;29.45;;;;;;;;;;5061122;28;20040;-52
2024/01/13 08:28:32;;;;;;;51.95;30.60;;;;;;;;;;5063331;28;20041;-51
2024/01/13 08:30:58;;;;;;;53.28;29.15;;;4.40;99.90;;;;;;5069036;28;20063;-51
2024/01/13 08:33:24;;;;;;;55.03;30.48;;;;;;;;;;5063182;28;20468;-53
2024/01/13 08:35:50;;;;;;;48.65;30.33;;;;;;;;;;5066422;28;20044;-51
2024/01/13 08:38:16;;;;;;;45.53;28.90;;;;;;;;;;5062965;28;20356;-50
2024/01/13 08:40:45;;;;;;;47.97;29.92;;;;;;;;;;5067197;28;20044;-51
2024/01/13 08:43:11;;;;;;;46.25;27.15;;;;;;;;;;5064767;28;20040;-55
2024/01/13 08:45:37;;;;;;;46.50;28.00;;;4.50;99.90;;;;;;5066531;28;20120;-54
2024/01/13 08:48:03;;;;;;;43.03;25.08;;;;;;;;;;5064320;28;20116;-55
2024/01/13 08:50:29;;;;;;;40.97;24.98;;;;;;;;;;5068292;28;20055;-53
2024/01/13 08:52:55;;;;;;;41.45;25.20;;;;;;;;;;5069862;28;20036;-53
2024/01/13 08:55:22;;;;;;;43.03;23.50;;;;;;;;;;5069972;28;20052;-54
2024/01/13 08:57:48;;;;;;;40.08;22.90;;;;;;;;;;5068063;28;20041;-54
2024/01/13 09:00:14;;;;;;;41.28;23.13;;;;;;;;;;5065430;28;20036;-55
2024/01/13 09:02:40;;;;;;;44.00;23.88;;;;;;;;;;5067828;28;20028;-55
2024/01/13 09:05:07;;;;;;;42.63;24.98;;;;;;;;;;5067149;28;20526;-51
2024/01/13 09:07:34;;;;;;;44.40;24.05;;;;;;;;;;5059608;28;20048;-55
2024/01/13 09:10:00;;;;;;;42.58;23.00;;;4.60;99.90;;;;;;5065280;28;20032;-53
2024/01/13 09:12:26;;;;;;;40.78;22.85;;;;;;;;;;5067356;28;20035;-50
2024/01/13 09:14:52;;;;;;;38.20;20.92;;;;;;;;;;5062222;28;20047;-55
2024/01/13 09:17:18;;;;;;;35.15;19.77;;;;;;;;;;5060828;28;20426;-53
2024/01/13 09:19:44;;;;;;;34.30;20.65;;;;;;;;;;5065547;28;20090;-52
2024/01/13 09:22:10;;;;;;;36.03;20.13;;;;;;;;;;5064987;28;20036;-55
2024/01/13 09:24:36;;;;;;;34.03;18.27;;;;;;;;;;5067864;28;20052;-55
2024/01/13 09:27:02;;;;;;;30.15;17.48;;;;;;;;;;5062847;28;20049;-54
2024/01/13 09:29:28;;;;;;;32.72;17.17;;;;;;;;;;5066730;28;20373;-50
2024/01/13 09:31:53;;;;;;;27.05;14.52;;;4.80;99.90;;;;;;5066350;28;20052;-51
2024/01/13 09:34:22;;;;;;;36.25;14.90;;;;;;;;;;5068385;28;20090;-51
2024/01/13 09:36:50;;;;;;;23.77;13.23;;;4.90;99.90;;;;;;5065522;28;20040;-52
2024/01/13 09:39:16;;;;;;;22.67;12.63;;;;;;;;;;5065490;28;20527;-54
2024/01/13 09:41:44;;;;;;;20.60;10.85;;;4.30;99.90;;;;;;5070065;28;20044;-51
2024/01/13 09:44:36;;;;;;;22.05;11.48;;;5.10;99.90;;;;;;5067772;28;20043;-53
2024/01/13 09:47:02;;;;;;;22.83;11.90;;;;;;;;;;5033994;28;20056;-54
2024/01/13 09:49:30;;;;;;;23.08;10.20;;;5.20;99.90;;;;;;5067618;28;20043;-53
2024/01/13 09:51:58;;;;;;;17.90;9.20;;;;;;;;;;5045307;28;20171;-55
2024/01/13 09:54:25;;;;;;;20.55;9.05;;;;;;;;;;5067864;28;20040;-52
2024/01/13 09:56:52;;;;;;;21.70;10.10;;;;;;;;;;5050720;28;20037;-51
2024/01/13 09:59:22;;;;;;;23.15;8.85;;;5.00;99.90;;;;;;5063259;28;20036;-54
2024/01/13 10:01:48;;;;;;;16.35;9.25;;;;;;;;;;5065653;28;20048;-52
2024/01/13 10:04:14;;;;;;;16.50;8.48;;;;;;;;;;5065560;28;20051;-51
2024/01/13 10:06:40;;;;;;;21.42;8.98;;;5.00;99.90;;;;;;5064226;28;20087;-54
2024/01/13 10:09:07;;;;;;;25.00;9.30;;;5.00;99.90;;;;;;5065365;28;20060;-51
2024/01/13 10:11:34;;;;;;;18.85;8.45;;;;;;;;;;5064784;28;20045;-53
2024/01/13 10:14:08;;;;;;;17.20;8.80;;;4.90;99.90;;;;;;5067849;28;20040;-54
2024/01/13 10:16:34;;;;;;;17.67;8.93;;;;;;;;;;5063064;28;20036;-51
2024/01/13 10:19:01;;;;;;;17.83;9.57;;;;;;;;;;5065343;28;20461;-55
2024/01/13 10:21:27;;;;;;;18.92;10.93;;;;;;;;;;5063894;28;20041;-53
2024/01/13 10:23:57;;;;;;;22.13;9.00;;;5.10;99.90;;;;;;5063567;28;20087;-51
2024/01/13 10:26:25;;;;;;;15.90;7.90;;;5.10;99.90;;;;;;5060265;28;20044;-53
2024/01/13 10:28:51;;;;;;;16.85;7.68;;;;;;;;;;5061242;28;20472;-51
2024/01/13 10:31:18;;;;;;;15.40;6.80;;;;;;;;;;5064015;28;20041;-54
2024/01/13 10:33:48;;;;;;;21.83;7.65;;;5.40;99.90;;;;;;5064757;28;20049;-55
2024/01/13 10:36:14;;;;;;;13.90;5.20;;;;;;;;;;5066049;28;20051;-53
2024/01/13 10:38:42;;;;;;;12.40;4.18;;;5.30;99.90;;;;;;5060078;28;20059;-51
2024/01/13 10:41:11;;;;;;;18.00;3.90;;;5.50;99.90;;;;;;5064341;28;20064;-50
2024/01/13 10:43:41;;;;;;;11.27;3.67;;;;;;;;;;5065404;28;20047;-50
2024/01/13 10:46:14;;;;;;;9.00;3.13;;;;;;;;;;5066642;28;20151;-51
2024/01/13 10:48:45;;;;;;;11.70;3.58;;;5.30;99.90;;;;;;5050301;28;20040;-52
2024/01/13 10:51:33;;;;;;;9.77;3.08;;;5.20;99.90;;;;;;5063750;28;20032;-50
2024/01/13 10:54:00;;;;;;;8.70;3.13;;;;;;;;;;5062065;28;20047;-53
2024/01/13 10:56:27;;;;;;;9.73;2.72;;;;;;;;;;5065038;28;20049;-51
2024/01/13 10:58:54;;;;;;;9.95;3.08;;;;;;;;;;5064751;28;20033;-51
2024/01/13 11:01:20;;;;;;;15.85;3.08;;;;;;;;;;5061189;28;20084;-50
2024/01/13 11:03:49;;;;;;;7.07;2.70;;;5.30;99.90;;;;;;5066984;28;20135;-54
2024/01/13 11:06:15;;;;;;;12.57;3.08;;;5.50;99.90;;;;;;5065068;28;20511;-54
2024/01/13 11:08:42;;;;;;;9.90;3.10;;;;;;;;;;5063024;28;20059;-54
2024/01/13 11:11:10;;;;;;;10.93;3.10;;;5.60;99.90;;;;;;5067022;28;20120;-55
2024/01/13 11:13:42;;;;;;;7.72;2.88;;;;;;;;;;5060710;28;20497;-55
2024/01/13 11:16:12;;;;;;;14.85;3.50;;;5.40;99.90;;;;;;5068726;28;20140;-55
2024/01/13 11:18:40;;;;;;;7.82;3.50;;;;;;;;;;5062613;28;20037;-52
2024/01/13 11:21:07;;;;;;;9.85;3.10;;;;;;;;;;5062308;28;20047;-55
2024/01/13 11:23:40;;;;;;;10.23;3.13;;;;;;;;;;5062952;28;20056;-55
2024/01/13 11:26:07;;;;;;;7.22;3.08;;;;;;;;;;5062475;28;20514;-53
2024/01/13 11:28:49;;;;;;;8.35;3.00;;;;;;;;;;5060048;28;20163;-55
2024/01/13 11:31:31;;;;;;;8.57;3.38;;;5.10;99.90;;;;;;5062736;28;20044;-54
2024/01/13 11:33:59;;;;;;;8.80;2.83;;;5.70;99.90;;;;;;5058601;28;20049;-55
2024/01/13 11:36:27;;;;;;;20.45;4.15;;;;;;;;;;5062387;28;20029;-55
2024/01/13 11:38:53;;;;;;;9.15;2.35;;;;;;;;;;5063177;28;20044;-55
2024/01/13 11:41:19;;;;;;;8.82;2.65;;;;;;;;;;5063230;28;20082;-51
2024/01/13 11:43:46;;;;;;;10.07;2.58;;;;;;;;;;5066389;28;20076;-53
2024/01/13 11:46:14;;;;;;;8.50;3.53;;;;;;;;;;5063292;28;20049;-54
2024/01/13 11:48:41;;;;;;;10.57;2.45;;;;;;;;;;5061988;28;20048;-51
2024/01/13 11:51:13;;;;;;;10.45;3.65;;;;;;;;;;5063928;28;20118;-54
2024/01/13 11:53:46;;;;;;;13.70;3.63;;;;;;;;;;5068181;28;20051;-52
2024/01/13 11:56:13;;;;;;;9.85;2.65;;;;;;;;;;5068288;28;20048;-51
2024/01/13 11:58:40;;;;;;;11.82;3.55;;;;;;;;;;5067467;28;20032;-54
2024/01/13 12:01:07;;;;;;;10.13;2.92;;;;;;;;;;5067578;28;20037;-50
2024/01/13 12:03:33;;;;;;;11.10;2.67;;;;;;;;;;5069289;28;20517;-51
2024/01/13 12:05:59;;;;;;;7.43;2.53;;;;;;;;;;5065601;28;20397;-52
2024/01/13 12:08:26;;;;;;;10.23;2.70;;;;;;;;;;5069357;28;20036;-54
2024/01/13 12:10:53;;;;;;;6.75;2.40;;;5.80;99.90;;;;;;5067437;28;20454;-51
2024/01/13 12:13:20;;;;;;;9.05;2.42;;;;;;;;;;5064331;28;20036;-55
2024/01/13 12:15:46;;;;;;;9.40;2.90;;;;;;;;;;5066262;28;20114;-52
2024/01/13 12:18:19;;;;;;;11.10;3.28;;;;;;;;;;5062577;28;20120;-53
2024/01/13 12:20:45;;;;;;;8.00;2.85;;;6.00;99.90;;;;;;5066228;28;20165;-51
2024/01/13 12:23:11;;;;;;;9.63;2.55;;;6.00;99.90;;;;;;5069150;28;20041;-50
2024/01/13 12:25:37;;;;;;;7.88;2.13;;;;;;;;;;5052880;28;20033;-55
2024/01/13 12:28:03;;;;;;;8.50;2.20;;;;;;;;;;5068260;28;20032;-53
2024/01/13 12:30:29;;;;;;;10.10;1.90;;;;;;;;;;5065552;28;20112;-52
2024/01/13 12:32:55;;;;;;;6.25;1.50;;;;;;;;;;5111000;23;20474;-55
2024/01/13 12:35:25;;;;;;;7.82;1.70;;;;;;;;;;4993613;28;20105;-59
2024/01/13 12:37:51;;;;;;;6.60;1.77;;;;;;;;;;4989826;28;20031;-55
2024/01/13 12:40:22;;;;;;;7.45;1.58;;;;;;;;;;4991159;28;20042;-56
2024/01/13 12:42:48;;;;;;;8.80;1.48;;;;;;;;;;4983992;28;20062;-57
2024/01/13 12:45:16;;;;;;;10.18;2.83;;;6.10;99.90;;;;;;4986331;28;20042;-56
2024/01/13 12:47:42;;;;;;;8.30;1.92;;;;;;;;;;4990096;28;20311;-59
2024/01/13 12:50:12;;;;;;;9.57;2.13;;;6.70;99.90;;;;;;4982438;28;20062;-57
2024/01/13 12:52:38;;;;;;;10.73;2.17;;;;;;;;;;4983842;28;20494;-55
2024/01/13 12:55:05;;;;;;;7.13;2.10;;;;;;;;;;4990950;28;20406;-57
2024/01/13 12:57:31;;;;;;;10.38;2.50;;;;;;;;;;4987502;28;20177;-58
2024/01/13 12:59:57;;;;;;;14.65;2.75;;;;;;;;;;4989164;28;20034;-56
2024/01/13 13:02:24;;;;;;;10.07;3.13;;;;;;;;;;4989898;28;20133;-58
2024/01/13 13:04:50;;;;;;;9.27;2.10;;;;;;;;;;4989714;28;20050;-58
2024/01/13 13:07:16;;;;;;;10.65;2.47;;;;;;;;;;4988675;28;20128;-57
2024/01/13 13:09:43;;;;;;;11.27;2.13;;;;;;;;;;4990221;28;20069;-59
2024/01/13 13:12:09;;;;;;;7.82;2.15;;;9.40;99.90;;;;;;4986928;28;20042;-59
2024/01/13 13:14:35;;;;;;;10.65;2.55;;;;;;;;;;4987904;28;20397;-58
2024/01/13 13:17:01;;;;;;;10.43;2.28;;;;;;;;;;4990418;28;20077;-58
2024/01/13 13:19:26;;;;;;;10.25;2.30;;;;;;;;;;4986658;28;20062;-58
2024/01/13 13:21:52;;;;;;;11.43;2.63;;;;;;;;;;4982608;28;20038;-59
2024/01/13 13:24:18;;;;;;;12.85;2.65;;;8.80;99.90;;;;;;4987451;28;20043;-58
2024/01/13 13:26:44;;;;;;;15.15;3.25;;;8.70;99.90;;;;;;4989111;28;20485;-56
2024/01/13 13:29:10;;;;;;;10.73;3.00;;;;;;;;;;4983856;28;20038;-59
2024/01/13 13:31:36;;;;;;;8.50;2.40;;;;;;;;;;4985990;28;20050;-57
2024/01/13 13:34:02;;;;;;;16.17;3.13;;;;;;;;;;4990093;28;20072;-57
2024/01/13 13:36:35;;;;;;;13.13;3.53;;;8.10;99.90;;;;;;4981762;28;20038;-58
2024/01/13 13:39:01;;;;;;;13.48;3.50;;;;;;;;;;4989682;28;20034;-58
2024/01/13 13:41:27;;;;;;;13.30;3.40;;;;;;;;;;4986341;28;20465;-60
2024/01/13 13:43:53;;;;;;;10.63;3.38;;;;;;;;;;4988332;28;20100;-60
2024/01/13 13:46:19;;;;;;;15.13;2.88;;;;;;;;;;4991203;28;20042;-59
2024/01/13 13:48:45;;;;;;;10.15;2.65;;;;;;;;;;4987556;28;20038;-58
2024/01/13 13:51:11;;;;;;;11.10;2.72;;;8.50;99.90;;;;;;4989664;28;20038;-59
2024/01/13 13:53:37;;;;;;;12.93;2.72;;;;;;;;;;4987073;28;20494;-58
2024/01/13 13:56:03;;;;;;;10.35;2.60;;;8.20;99.90;;;;;;4984202;28;20042;-59
2024/01/13 13:58:28;;;;;;;14.80;2.90;;;8.10;99.90;;;;;;4987351;28;20034;-59
2024/01/13 14:00:55;;;;;;;14.55;2.70;;;;;;;;;;4982837;28;20042;-59
2024/01/13 14:03:21;;;;;;;13.88;2.92;;;;;;;;;;4985992;28;20039;-58
2024/01/13 14:05:47;;;;;;;12.00;3.08;;;;;;;;;;4988789;28;20034;-58